createdAt,value
2019-01-13T00:02:00.399Z,97458.89
2019-01-13T00:04:29.982Z,97469.01
2019-01-13T00:06:59.451Z,97473.02
2019-01-13T00:09:28.809Z,97467.69
2019-01-13T00:11:58.195Z,97466.88
2019-01-13T00:14:27.560Z,97460.21
2019-01-13T00:16:57.062Z,97462.88
2019-01-13T00:19:26.505Z,97468.48
2019-01-13T00:21:56.161Z,97464.75
2019-01-13T00:24:25.515Z,97463.95
2019-01-13T00:26:54.901Z,97466.08
2019-01-13T00:29:24.276Z,97458.60
2019-01-13T00:31:53.674Z,97457.02
2019-01-13T00:34:23.045Z,97457.53
2019-01-13T00:36:52.492Z,97461.27
2019-01-13T00:39:21.915Z,97459.42
2019-01-13T00:41:51.287Z,97464.48
2019-01-13T00:44:20.681Z,97464.76
2019-01-13T00:46:50.043Z,97461.02
2019-01-13T00:49:19.538Z,97464.48
2019-01-13T00:51:48.919Z,97468.48
2019-01-13T00:54:18.316Z,97462.34
2019-01-13T00:56:47.769Z,97470.34
2019-01-13T00:59:17.177Z,97460.20
2019-01-13T01:01:46.558Z,97468.49
2019-01-13T01:04:16.010Z,97471.16
2019-01-13T01:06:45.389Z,97477.56
2019-01-13T01:09:14.786Z,97483.42
2019-01-13T01:11:44.210Z,97480.50
2019-01-13T01:14:13.562Z,97487.96
2019-01-13T01:16:42.940Z,97487.69
2019-01-13T01:19:12.341Z,97483.45
2019-01-13T01:21:41.708Z,97485.02
2019-01-13T01:24:11.086Z,97486.35
2019-01-13T01:26:40.797Z,97486.10
2019-01-13T01:29:10.200Z,97487.70
2019-01-13T01:31:39.547Z,97485.84
2019-01-13T01:34:08.915Z,97482.89
2019-01-13T01:36:38.361Z,97486.63
2019-01-13T01:39:08.498Z,97491.16
2019-01-13T01:41:37.958Z,97490.59
2019-01-13T01:44:07.325Z,97493.54
2019-01-13T01:46:36.706Z,97494.34
2019-01-13T01:49:06.099Z,97497.80
2019-01-13T01:51:35.542Z,97495.37
2019-01-13T01:54:04.916Z,97489.02
2019-01-13T01:56:34.318Z,97494.08
2019-01-13T01:59:03.780Z,97495.44
2019-01-13T02:01:33.235Z,97492.23
2019-01-13T02:04:02.689Z,97498.88
2019-01-13T02:06:32.078Z,97499.44
2019-01-13T02:09:01.582Z,97497.03
2019-01-13T02:11:30.954Z,97495.70
2019-01-13T02:14:00.351Z,97493.30
2019-01-13T02:16:30.381Z,97490.33
2019-01-13T02:18:59.825Z,97488.73
2019-01-13T02:21:29.204Z,97486.89
2019-01-13T02:23:58.570Z,97481.84
2019-01-13T02:26:27.949Z,97479.14
2019-01-13T02:28:57.463Z,97478.09
2019-01-13T02:31:26.863Z,97470.88
2019-01-13T02:33:56.239Z,97469.30
2019-01-13T02:36:25.724Z,97472.23
2019-01-13T02:38:55.088Z,97463.42
2019-01-13T02:41:24.446Z,97474.09
2019-01-13T02:43:53.841Z,97473.02
2019-01-13T02:46:23.225Z,97470.87
2019-01-13T02:48:52.626Z,97471.68
2019-01-13T02:51:21.964Z,97461.53
2019-01-13T02:53:51.356Z,97469.80
2019-01-13T02:56:20.724Z,97469.77
2019-01-13T02:58:50.190Z,97470.59
2019-01-13T03:01:19.543Z,97472.45
2019-01-13T03:03:48.906Z,97466.55
2019-01-13T03:06:18.293Z,97459.09
2019-01-13T03:08:47.677Z,97457.74
2019-01-13T03:11:17.068Z,97450.80
2019-01-13T03:13:46.430Z,97447.86
2019-01-13T03:16:15.813Z,97446.50
2019-01-13T03:18:45.262Z,97445.98
2019-01-13T03:21:14.690Z,97449.20
2019-01-13T03:23:44.089Z,97449.52
2019-01-13T03:26:13.481Z,97454.55
2019-01-13T03:28:42.932Z,97466.28
2019-01-13T03:31:12.834Z,97452.16
2019-01-13T03:33:42.276Z,97451.06
2019-01-13T03:36:11.636Z,97449.77
2019-01-13T03:38:41.036Z,97448.91
2019-01-13T03:41:10.388Z,97450.84
2019-01-13T03:43:39.794Z,97448.65
2019-01-13T03:46:09.158Z,97448.67
2019-01-13T03:48:38.526Z,97455.07
2019-01-13T03:51:07.910Z,97445.48
2019-01-13T03:53:37.264Z,97450.84
2019-01-13T03:56:06.635Z,97445.47
2019-01-13T03:58:36.048Z,97443.53
2019-01-13T04:01:05.428Z,97440.91
2019-01-13T04:03:34.813Z,97440.37
2019-01-13T04:06:04.300Z,97445.45
2019-01-13T04:08:33.656Z,97447.86
2019-01-13T04:11:03.048Z,97461.19
2019-01-13T04:13:32.438Z,97449.70
2019-01-13T04:16:02.389Z,97450.72
2019-01-13T04:18:31.781Z,97444.84
2019-01-13T04:21:01.150Z,97438.99
2019-01-13T04:23:30.532Z,97430.72
2019-01-13T04:25:59.893Z,97427.24
2019-01-13T04:28:29.373Z,97430.91
2019-01-13T04:30:58.734Z,97434.95
2019-01-13T04:33:28.098Z,97432.80
2019-01-13T04:35:57.474Z,97427.14
2019-01-13T04:38:26.835Z,97428.95
2019-01-13T04:40:56.244Z,97427.05
2019-01-13T04:43:25.605Z,97426.02
2019-01-13T04:45:54.984Z,97423.54
2019-01-13T04:48:24.369Z,97424.10
2019-01-13T04:50:53.851Z,97427.31
2019-01-13T04:53:23.208Z,97430.38
2019-01-13T04:55:52.573Z,97430.23
2019-01-13T04:58:21.953Z,97435.08
2019-01-13T05:00:51.305Z,97430.03
2019-01-13T05:03:20.699Z,97427.85
2019-01-13T05:05:50.140Z,97424.14
2019-01-13T05:08:19.545Z,97429.22
2019-01-13T05:10:48.956Z,97428.91
2019-01-13T05:13:18.312Z,97427.59
2019-01-13T05:15:47.708Z,97432.67
2019-01-13T05:18:17.156Z,97425.67
2019-01-13T05:20:46.560Z,97422.20
2019-01-13T05:23:15.927Z,97416.98
2019-01-13T05:25:45.320Z,97426.64
2019-01-13T05:28:14.684Z,97427.24
2019-01-13T05:30:44.173Z,97415.97
2019-01-13T05:33:13.551Z,97415.73
2019-01-13T05:35:42.917Z,97408.19
2019-01-13T05:38:12.296Z,97412.42
2019-01-13T05:40:41.651Z,97405.05
2019-01-13T05:43:11.075Z,97408.03
2019-01-13T05:45:40.433Z,97403.20
2019-01-13T05:48:09.826Z,97398.34
2019-01-13T05:50:39.177Z,97398.88
2019-01-13T05:53:08.662Z,97394.27
2019-01-13T05:55:38.021Z,97384.64
2019-01-13T05:58:07.402Z,97378.77
2019-01-13T06:00:41.192Z,97371.16
2019-01-13T06:03:10.562Z,97374.34
2019-01-13T06:05:39.964Z,97373.54
2019-01-13T06:08:09.344Z,97367.73
2019-01-13T06:10:38.719Z,97377.78
2019-01-13T06:13:08.092Z,97373.55
2019-01-13T06:15:37.485Z,97369.05
2019-01-13T06:18:06.862Z,97370.68
2019-01-13T06:20:36.249Z,97356.52
2019-01-13T06:23:05.623Z,97360.97
2019-01-13T06:25:35.006Z,97363.28
2019-01-13T06:28:04.369Z,97355.03
2019-01-13T06:30:34.088Z,97365.77
2019-01-13T06:33:03.469Z,97366.28
2019-01-13T06:35:32.821Z,97366.05
2019-01-13T06:38:02.222Z,97361.19
2019-01-13T06:40:31.576Z,97353.42
2019-01-13T06:43:00.960Z,97352.00
2019-01-13T06:45:30.321Z,97362.73
2019-01-13T06:47:59.698Z,97361.20
2019-01-13T06:50:29.048Z,97367.38
2019-01-13T06:52:58.432Z,97361.48
2019-01-13T06:55:27.792Z,97356.06
2019-01-13T06:57:57.146Z,97350.28
2019-01-13T07:00:29.768Z,97340.61
2019-01-13T07:02:59.549Z,97343.09
2019-01-13T07:05:28.961Z,97342.31
2019-01-13T07:07:58.313Z,97353.47
2019-01-13T07:10:27.789Z,97353.44
2019-01-13T07:12:57.169Z,97350.80
2019-01-13T07:15:26.533Z,97352.94
2019-01-13T07:17:55.905Z,97349.89
2019-01-13T07:20:25.270Z,97350.88
2019-01-13T07:22:54.647Z,97344.33
2019-01-13T07:25:23.997Z,97337.92
2019-01-13T07:27:53.377Z,97329.59
2019-01-13T07:30:26.853Z,97330.13
2019-01-13T07:32:56.257Z,97330.34
2019-01-13T07:35:25.727Z,97327.39
2019-01-13T07:37:55.067Z,97330.91
2019-01-13T07:40:24.977Z,97318.77
2019-01-13T07:42:54.970Z,97318.60
2019-01-13T07:45:28.461Z,97317.41
2019-01-13T07:47:57.820Z,97319.68
2019-01-13T07:50:27.299Z,97317.31
2019-01-13T07:52:56.662Z,97320.22
2019-01-13T07:55:26.434Z,97313.25
2019-01-13T07:57:55.794Z,97313.62
2019-01-13T08:00:35.290Z,97308.66
2019-01-13T08:03:06.085Z,97312.97
2019-01-13T08:05:35.603Z,97312.41
2019-01-13T08:08:05.195Z,97307.59
2019-01-13T08:10:34.559Z,97305.18
2019-01-13T08:13:04.053Z,97313.66
2019-01-13T08:15:33.427Z,97310.38
2019-01-13T08:18:02.917Z,97310.67
2019-01-13T08:20:33.132Z,97308.54
2019-01-13T08:23:02.591Z,97301.73
2019-01-13T08:25:32.059Z,97300.68
2019-01-13T08:28:01.424Z,97303.98
2019-01-13T08:30:30.833Z,97300.03
2019-01-13T08:33:00.198Z,97290.67
2019-01-13T08:35:29.587Z,97288.71
2019-01-13T08:37:58.966Z,97286.03
2019-01-13T08:40:28.445Z,97281.48
2019-01-13T08:42:57.958Z,97280.84
2019-01-13T08:45:27.346Z,97270.72
2019-01-13T08:47:56.725Z,97257.48
2019-01-13T08:50:26.942Z,97252.47
2019-01-13T08:52:56.401Z,97250.59
2019-01-13T08:55:29.864Z,97246.12
2019-01-13T08:57:59.316Z,97242.42
2019-01-13T09:00:33.387Z,97236.03
2019-01-13T09:03:06.443Z,97240.70
2019-01-13T09:05:35.943Z,97234.30
2019-01-13T09:08:06.586Z,97228.95
2019-01-13T09:10:35.950Z,97230.86
2019-01-13T09:13:05.367Z,97226.27
2019-01-13T09:15:34.728Z,97228.87
2019-01-13T09:18:04.472Z,97232.88
2019-01-13T09:20:33.852Z,97232.23
2019-01-13T09:23:03.874Z,97229.52
2019-01-13T09:25:35.210Z,97221.17
2019-01-13T09:28:05.111Z,97211.14
2019-01-13T09:30:34.495Z,97208.14
2019-01-13T09:33:05.456Z,97202.41
2019-01-13T09:35:35.212Z,97194.55
2019-01-13T09:38:04.681Z,97198.31
2019-01-13T09:40:34.074Z,97199.48
2019-01-13T09:43:04.614Z,97192.89
2019-01-13T09:45:33.982Z,97195.76
2019-01-13T09:48:03.364Z,97197.92
2019-01-13T09:50:32.738Z,97185.14
2019-01-13T09:53:02.129Z,97176.76
2019-01-13T09:55:31.509Z,97174.23
2019-01-13T09:58:00.890Z,97180.81
2019-01-13T10:00:35.022Z,97161.88
2019-01-13T10:03:05.054Z,97162.58
2019-01-13T10:05:34.573Z,97165.08
2019-01-13T10:08:04.020Z,97151.13
2019-01-13T10:10:33.402Z,97148.72
2019-01-13T10:13:02.772Z,97135.65
2019-01-13T10:15:32.121Z,97132.07
2019-01-13T10:18:01.499Z,97125.38
2019-01-13T10:20:30.847Z,97124.00
2019-01-13T10:23:00.241Z,97122.25
2019-01-13T10:25:29.612Z,97112.62
2019-01-13T10:27:59.089Z,97111.27
2019-01-13T10:30:32.805Z,97101.95
2019-01-13T10:33:02.364Z,97091.31
2019-01-13T10:35:31.803Z,97092.20
2019-01-13T10:38:01.404Z,97091.55
2019-01-13T10:40:31.597Z,97101.20
2019-01-13T10:43:01.281Z,97094.86
2019-01-13T10:45:31.138Z,97087.34
2019-01-13T10:48:00.940Z,97080.41
2019-01-13T10:50:31.460Z,97052.76
2019-01-13T10:53:08.436Z,97038.36
2019-01-13T10:55:37.990Z,97048.55
2019-01-13T10:58:07.613Z,97034.93
2019-01-13T11:00:39.134Z,97032.39
2019-01-13T11:03:08.593Z,97031.22
2019-01-13T11:05:38.003Z,97038.41
2019-01-13T11:08:11.791Z,97038.89
2019-01-13T11:10:38.923Z,97035.31
2019-01-13T11:13:08.291Z,97030.45
2019-01-13T11:15:37.756Z,97029.47
2019-01-13T11:18:07.633Z,97028.28
2019-01-13T11:20:38.891Z,97024.93
2019-01-13T11:23:08.877Z,97023.16
2019-01-13T11:25:38.238Z,97031.99
2019-01-13T11:28:07.759Z,97029.50
2019-01-13T11:30:37.174Z,97022.17
2019-01-13T11:33:09.651Z,97010.83
2019-01-13T11:35:37.734Z,97005.02
2019-01-13T11:38:07.249Z,97005.72
2019-01-13T11:40:36.725Z,97005.87
2019-01-13T11:43:06.164Z,96998.09
2019-01-13T11:45:35.633Z,96983.79
2019-01-13T11:48:05.242Z,96976.61
2019-01-13T11:50:34.949Z,96967.16
2019-01-13T11:53:04.799Z,96964.55
2019-01-13T11:55:34.249Z,96956.52
2019-01-13T11:58:03.717Z,96951.98
2019-01-13T12:00:35.816Z,96941.71
2019-01-13T12:03:06.832Z,96944.07
2019-01-13T12:05:36.602Z,96943.61
2019-01-13T12:08:06.577Z,96948.09
2019-01-13T12:10:36.258Z,96943.50
2019-01-13T12:13:05.928Z,96941.06
2019-01-13T12:15:35.336Z,96937.16
2019-01-13T12:18:05.098Z,96933.30
2019-01-13T12:20:34.537Z,96930.81
2019-01-13T12:23:04.019Z,96924.11
2019-01-13T12:25:33.456Z,96913.75
2019-01-13T12:28:03.009Z,96908.96
2019-01-13T12:30:33.298Z,96893.30
2019-01-13T12:33:02.773Z,96872.33
2019-01-13T12:35:32.242Z,96857.98
2019-01-13T12:38:01.685Z,96847.56
2019-01-13T12:40:32.226Z,96839.27
2019-01-13T12:43:02.257Z,96833.59
2019-01-13T12:45:32.898Z,96833.88
2019-01-13T12:48:02.358Z,96823.73
2019-01-13T12:50:32.125Z,96820.91
2019-01-13T12:53:01.776Z,96825.50
2019-01-13T12:55:31.294Z,96817.67
2019-01-13T12:58:00.729Z,96806.36
2019-01-13T13:00:30.193Z,96797.52
2019-01-13T13:02:59.654Z,96786.64
2019-01-13T13:05:29.201Z,96771.88
2019-01-13T13:07:58.665Z,96762.84
2019-01-13T13:10:39.107Z,96756.47
2019-01-13T13:13:08.772Z,96752.94
2019-01-13T13:15:38.140Z,96733.36
2019-01-13T13:18:07.646Z,96733.38
2019-01-13T13:20:37.025Z,96720.27
2019-01-13T13:23:07.221Z,96727.80
2019-01-13T13:25:36.678Z,96718.69
2019-01-13T13:28:06.796Z,96710.66
2019-01-13T13:30:36.240Z,96707.73
2019-01-13T13:33:05.800Z,96691.05
2019-01-13T13:35:39.620Z,96684.00
2019-01-13T13:38:06.938Z,96681.12
2019-01-13T13:40:36.314Z,96682.41
2019-01-13T13:43:05.882Z,96681.79
2019-01-13T13:45:35.259Z,96675.11
2019-01-13T13:48:05.183Z,96664.16
2019-01-13T13:50:34.675Z,96671.49
2019-01-13T13:53:04.426Z,96658.31
2019-01-13T13:55:33.860Z,96661.68
2019-01-13T13:58:03.433Z,96655.26
2019-01-13T14:00:34.966Z,96650.33
2019-01-13T14:03:04.874Z,96641.05
2019-01-13T14:05:34.318Z,96633.63
2019-01-13T14:08:03.750Z,96625.73
2019-01-13T14:10:43.619Z,96621.14
2019-01-13T14:13:13.051Z,96621.78
2019-01-13T14:15:42.443Z,96613.88
2019-01-13T14:18:11.810Z,96616.63
2019-01-13T14:20:41.193Z,96610.32
2019-01-13T14:23:10.638Z,96602.80
2019-01-13T14:25:40.097Z,96609.97
2019-01-13T14:28:09.535Z,96601.37
2019-01-13T14:30:38.909Z,96589.78
2019-01-13T14:33:08.324Z,96590.59
2019-01-13T14:35:37.697Z,96595.74
2019-01-13T14:38:07.244Z,96584.58
2019-01-13T14:40:36.623Z,96572.20
2019-01-13T14:43:06.172Z,96572.15
2019-01-13T14:45:35.645Z,96579.02
2019-01-13T14:48:05.349Z,96566.44
2019-01-13T14:50:34.892Z,96556.63
2019-01-13T14:53:05.870Z,96553.69
2019-01-13T14:55:35.282Z,96555.29
2019-01-13T14:58:05.493Z,96558.59
2019-01-13T15:00:34.949Z,96544.59
2019-01-13T15:03:04.633Z,96546.44
2019-01-13T15:05:33.985Z,96560.70
2019-01-13T15:08:03.373Z,96549.22
2019-01-13T15:10:32.724Z,96549.13
2019-01-13T15:13:02.116Z,96541.42
2019-01-13T15:15:31.480Z,96536.62
2019-01-13T15:18:00.889Z,96537.60
2019-01-13T15:20:30.336Z,96530.92
2019-01-13T15:22:59.922Z,96532.02
2019-01-13T15:25:32.427Z,96528.93
2019-01-13T15:28:01.816Z,96520.23
2019-01-13T15:30:40.477Z,96516.19
2019-01-13T15:33:10.658Z,96516.05
2019-01-13T15:35:40.041Z,96511.88
2019-01-13T15:38:10.353Z,96502.09
2019-01-13T15:40:39.927Z,96504.80
2019-01-13T15:43:09.310Z,96502.17
2019-01-13T15:45:38.690Z,96505.70
2019-01-13T15:48:08.833Z,96493.63
2019-01-13T15:50:38.229Z,96481.58
2019-01-13T15:53:07.598Z,96479.70
2019-01-13T15:55:36.956Z,96466.66
2019-01-13T15:58:06.881Z,96454.98
2019-01-13T16:00:37.522Z,96435.50
2019-01-13T16:03:08.696Z,96432.93
2019-01-13T16:05:38.404Z,96441.94
2019-01-13T16:08:08.166Z,96428.55
2019-01-13T16:10:37.623Z,96428.57
2019-01-13T16:13:07.072Z,96435.42
2019-01-13T16:15:36.549Z,96447.56
2019-01-13T16:18:07.021Z,96426.55
2019-01-13T16:20:38.272Z,96413.53
2019-01-13T16:23:07.729Z,96423.23
2019-01-13T16:25:37.079Z,96422.08
2019-01-13T16:28:06.528Z,96418.31
2019-01-13T16:30:35.989Z,96408.92
2019-01-13T16:33:05.516Z,96419.02
2019-01-13T16:35:34.880Z,96409.80
2019-01-13T16:38:04.263Z,96413.73
2019-01-13T16:40:33.625Z,96400.58
2019-01-13T16:43:03.000Z,96407.47
2019-01-13T16:45:32.394Z,96393.73
2019-01-13T16:48:01.779Z,96396.33
2019-01-13T16:50:31.196Z,96382.45
2019-01-13T16:53:00.554Z,96387.58
2019-01-13T16:55:29.943Z,96383.71
2019-01-13T16:57:59.302Z,96389.16
2019-01-13T17:00:32.090Z,96364.62
2019-01-13T17:03:01.481Z,96363.86
2019-01-13T17:05:31.455Z,96374.03
2019-01-13T17:08:00.844Z,96361.97
2019-01-13T17:10:30.196Z,96360.36
2019-01-13T17:12:59.586Z,96353.42
2019-01-13T17:15:33.508Z,96348.47
2019-01-13T17:18:02.890Z,96363.77
2019-01-13T17:20:32.256Z,96366.92
2019-01-13T17:23:01.650Z,96359.90
2019-01-13T17:25:31.006Z,96356.75
2019-01-13T17:28:02.041Z,96350.60
2019-01-13T17:30:33.757Z,96353.75
2019-01-13T17:33:03.221Z,96338.36
2019-01-13T17:35:32.593Z,96336.33
2019-01-13T17:38:02.014Z,96337.48
2019-01-13T17:40:31.396Z,96344.59
2019-01-13T17:43:00.746Z,96337.90
2019-01-13T17:45:31.792Z,96334.43
2019-01-13T17:48:01.144Z,96321.95
2019-01-13T17:50:30.607Z,96317.79
2019-01-13T17:52:59.966Z,96319.54
2019-01-13T17:55:30.213Z,96311.97
2019-01-13T17:57:59.989Z,96324.58
2019-01-13T18:00:53.254Z,96318.02
2019-01-13T18:03:35.889Z,96314.97
2019-01-13T18:06:05.257Z,96310.20
2019-01-13T18:08:34.631Z,96306.91
2019-01-13T18:11:04.104Z,96306.19
2019-01-13T18:13:33.517Z,96314.17
2019-01-13T18:16:02.868Z,96303.13
2019-01-13T18:18:32.243Z,96301.22
2019-01-13T18:21:01.627Z,96305.80
2019-01-13T18:23:30.985Z,96280.64
2019-01-13T18:26:00.364Z,96285.91
2019-01-13T18:28:29.717Z,96276.39
2019-01-13T18:30:59.117Z,96269.44
2019-01-13T18:33:28.481Z,96265.78
2019-01-13T18:35:57.891Z,96268.80
2019-01-13T18:38:27.272Z,96258.61
2019-01-13T18:40:56.632Z,96259.88
2019-01-13T18:43:26.016Z,96257.84
2019-01-13T18:45:55.378Z,96258.38
2019-01-13T18:48:24.756Z,96256.88
2019-01-13T18:50:54.116Z,96246.31
2019-01-13T18:53:23.520Z,96253.09
2019-01-13T18:55:52.877Z,96241.88
2019-01-13T18:58:22.351Z,96240.38
2019-01-13T19:00:51.713Z,96241.41
2019-01-13T19:03:21.070Z,96235.48
2019-01-13T19:05:50.946Z,96227.81
2019-01-13T19:08:20.427Z,96226.47
2019-01-13T19:11:14.708Z,96220.41
2019-01-13T19:14:34.251Z,96226.95
2019-01-13T19:17:11.885Z,96224.92
2019-01-13T19:20:01.094Z,96229.41
2019-01-13T19:22:31.952Z,96216.45
2019-01-13T19:25:03.695Z,96221.33
2019-01-13T19:27:33.056Z,96222.80
2019-01-13T19:30:02.717Z,96223.66
2019-01-13T19:32:32.061Z,96213.41
2019-01-13T19:35:04.680Z,96219.30
2019-01-13T19:37:32.504Z,96209.52
2019-01-13T19:40:01.926Z,96214.49
2019-01-13T19:42:31.280Z,96213.38
2019-01-13T19:45:00.683Z,96223.88
2019-01-13T19:47:30.069Z,96229.61
2019-01-13T19:49:59.426Z,96242.89
2019-01-13T19:52:28.815Z,96233.80
2019-01-13T19:54:58.167Z,96246.03
2019-01-13T19:57:27.538Z,96264.13
2019-01-13T19:59:56.889Z,96229.55
2019-01-13T20:02:26.264Z,96241.61
2019-01-13T20:04:55.626Z,96250.55
2019-01-13T20:07:25.104Z,96269.88
2019-01-13T20:09:54.473Z,96274.38
2019-01-13T20:12:23.826Z,96249.03
2019-01-13T20:14:53.197Z,96250.77
2019-01-13T20:17:22.549Z,96249.66
2019-01-13T20:19:51.928Z,96232.41
2019-01-13T20:22:21.286Z,96222.77
2019-01-13T20:24:50.673Z,96226.78
2019-01-13T20:27:20.028Z,96202.27
2019-01-13T20:29:49.388Z,96199.52
2019-01-13T20:32:18.764Z,96195.50
2019-01-13T20:34:48.116Z,96202.98
2019-01-13T20:37:17.512Z,96195.03
2019-01-13T20:39:46.881Z,96195.03
2019-01-13T20:42:16.303Z,96200.16
2019-01-13T20:44:45.659Z,96185.58
2019-01-13T20:47:15.404Z,96196.53
2019-01-13T20:49:44.869Z,96206.37
2019-01-13T20:52:14.231Z,96200.86
2019-01-13T20:54:43.614Z,96197.39
2019-01-13T20:57:12.980Z,96206.13
2019-01-13T20:59:42.357Z,96200.16
2019-01-13T21:02:11.721Z,96212.46
2019-01-13T21:04:41.212Z,96198.02
2019-01-13T21:07:10.568Z,96179.72
2019-01-13T21:09:39.927Z,96191.78
2019-01-13T21:12:09.322Z,96186.41
2019-01-13T21:14:38.689Z,96179.48
2019-01-13T21:17:08.085Z,96185.77
2019-01-13T21:19:37.458Z,96192.42
2019-01-13T21:22:06.868Z,96191.78
2019-01-13T21:24:36.221Z,96192.86
2019-01-13T21:27:05.734Z,96185.38
2019-01-13T21:29:35.102Z,96171.02
2019-01-13T21:32:04.473Z,96166.33
2019-01-13T21:34:33.844Z,96175.97
2019-01-13T21:37:03.862Z,96186.36
2019-01-13T21:39:33.224Z,96188.48
2019-01-13T21:42:02.629Z,96172.52
2019-01-13T21:44:32.023Z,96169.99
2019-01-13T21:47:01.378Z,96164.79
2019-01-13T21:49:30.776Z,96176.30
2019-01-13T21:52:00.146Z,96180.02
2019-01-13T21:54:29.794Z,96173.81
2019-01-13T21:56:59.197Z,96175.30
2019-01-13T21:59:28.553Z,96174.66
2019-01-13T22:01:57.950Z,96177.83
2019-01-13T22:04:27.298Z,96190.98
2019-01-13T22:06:56.684Z,96184.75
2019-01-13T22:09:26.049Z,96193.26
2019-01-13T22:11:55.533Z,96196.81
2019-01-13T22:14:24.900Z,96217.05
2019-01-13T22:16:54.260Z,96241.62
2019-01-13T22:19:23.645Z,96253.47
2019-01-13T22:21:53.015Z,96258.76
2019-01-13T22:24:22.407Z,96253.48
2019-01-13T22:26:51.831Z,96238.81
2019-01-13T22:29:21.218Z,96259.55
2019-01-13T22:31:50.573Z,96257.86
2019-01-13T22:34:19.975Z,96248.50
2019-01-13T22:36:49.377Z,96258.53
2019-01-13T22:39:18.696Z,96255.47
2019-01-13T22:41:48.108Z,96238.33
2019-01-13T22:44:17.466Z,96271.34
2019-01-13T22:46:46.843Z,96255.55
2019-01-13T22:49:16.197Z,96266.78
2019-01-13T22:51:45.795Z,96245.02
2019-01-13T22:54:15.152Z,96257.78
2019-01-13T22:56:44.508Z,96265.19
2019-01-13T22:59:13.896Z,96263.05
2019-01-13T23:01:44.544Z,96266.05
2019-01-13T23:04:17.819Z,96285.38
2019-01-13T23:06:47.178Z,96275.20
2019-01-13T23:09:16.574Z,96278.50
2019-01-13T23:11:45.935Z,96282.23
2019-01-13T23:14:15.513Z,96299.06
2019-01-13T23:16:44.975Z,96296.94
2019-01-13T23:19:14.438Z,96299.86
2019-01-13T23:21:43.823Z,96300.80
2019-01-13T23:24:13.167Z,96294.94
2019-01-13T23:26:42.557Z,96299.35
2019-01-13T23:29:11.914Z,96297.61
2019-01-13T23:31:41.301Z,96303.98
2019-01-13T23:34:10.659Z,96282.83
2019-01-13T23:36:40.018Z,96284.76
2019-01-13T23:39:09.805Z,96288.06
2019-01-13T23:41:39.177Z,96295.93
2019-01-13T23:44:08.565Z,96303.63
2019-01-13T23:46:37.921Z,96305.91
2019-01-13T23:49:07.679Z,96303.31
2019-01-13T23:51:37.040Z,96302.34
2019-01-13T23:54:06.493Z,96310.79
2019-01-13T23:56:35.880Z,96302.62
2019-01-13T23:59:05.240Z,96318.23
